Time;durP1;ratioP1;P1;durP2;ratioP2;P2;SDS_P1;SDS_P2;PMS_P1;PMS_P2;Temp;Humidity;BMP_temperature;BMP_pressure;BME280_temperature;BME280_humidity;BME280_pressure;Samples;Min_cycle;Max_cycle;Signal;HPM_P1;HPM_P2
2022/06/02 00:02:36;;;;;;;3.70;3.40;;;27.50;79.90;;;;;;4908601;29;20467;-61
2022/06/02 00:05:18;;;;;;;3.60;3.30;;;27.40;78.20;;;;;;4908107;29;20454;-61
2022/06/02 00:08:02;;;;;;;3.13;2.93;;;27.50;77.00;;;;;;4908716;29;20998;-61
2022/06/02 00:10:45;;;;;;;5.10;3.50;;;27.20;76.40;;;;;;4907553;29;20444;-61
2022/06/02 00:13:25;;;;;;;5.50;2.90;;;27.40;77.20;;;;;;4908490;29;20499;-61
2022/06/02 00:16:01;;;;;;;3.27;3.07;;;27.20;79.50;;;;;;4908222;29;20460;-61
2022/06/02 00:18:40;;;;;;;3.40;3.20;;;27.30;81.40;;;;;;4907946;29;20461;-61
2022/06/02 00:21:26;;;;;;;3.33;3.10;;;27.20;77.70;;;;;;4912486;29;20518;-61
2022/06/02 00:24:06;;;;;;;2.97;2.87;;;27.00;80.80;;;;;;4925949;29;20459;-61
2022/06/02 00:26:51;;;;;;;3.00;2.80;;;26.90;80.00;;;;;;4927149;29;20462;-61
2022/06/02 00:29:37;;;;;;;4.93;3.40;;;26.70;80.30;;;;;;4926360;29;20470;-61
2022/06/02 00:32:14;;;;;;;3.07;2.87;;;26.60;80.90;;;;;;4926978;29;20434;-61
2022/06/02 00:34:51;;;;;;;3.20;3.00;;;26.60;81.00;;;;;;4926748;29;20437;-61
2022/06/02 00:37:32;;;;;;;2.97;2.77;;;26.50;81.20;;;;;;4926867;29;20465;-62
2022/06/02 00:40:07;;;;;;;3.27;3.00;;;26.70;80.10;;;;;;4925849;29;20462;-62
2022/06/02 00:42:55;;;;;;;3.10;2.80;;;26.90;78.20;;;;;;4918522;29;20459;-62
2022/06/02 00:45:26;;;;;;;3.17;2.77;;;26.90;82.50;;;;;;4907660;29;20468;-62
2022/06/02 00:48:13;;;;;;;3.20;3.00;;;26.80;79.30;;;;;;4907979;29;20983;-62
2022/06/02 00:51:04;;;;;;;2.90;2.70;;;26.50;81.00;;;;;;4907425;29;20470;-62
2022/06/02 00:57:30;;;;;;;2.90;2.73;;;26.80;78.80;;;;;;4907802;29;20586;-63
2022/06/02 00:59:49;;;;;;;3.80;2.83;;;26.60;82.70;;;;;;4907551;29;20847;-63
2022/06/02 01:02:21;;;;;;;3.43;3.23;;;26.70;82.30;;;;;;4908141;29;20449;-62
2022/06/02 01:04:52;;;;;;;3.30;3.00;;;26.70;79.60;;;;;;4907512;29;20473;-62
2022/06/02 01:07:33;;;;;;;3.47;3.20;;;26.70;82.30;;;;;;4907548;29;20888;-62
2022/06/02 01:10:43;;;;;;;3.73;3.43;;;26.70;82.80;;;;;;4906206;29;20459;-62
2022/06/02 01:13:29;;;;;;;4.67;3.10;;;26.40;84.30;;;;;;4907370;29;20507;-62
2022/06/02 01:16:08;;;;;;;3.57;3.37;;;26.30;83.50;;;;;;4907553;29;20525;-62
2022/06/02 01:18:52;;;;;;;3.50;3.30;;;26.50;80.80;;;;;;4907351;29;20453;-62
2022/06/02 01:22:00;;;;;;;3.10;2.90;;;26.30;84.70;;;;;;4907581;29;20472;-62
2022/06/02 01:25:15;;;;;;;3.20;2.90;;;26.30;85.10;;;;;;4866967;29;20468;-62
2022/06/02 01:28:15;;;;;;;3.50;3.20;;;26.50;83.30;;;;;;4820365;29;20628;-62
2022/06/02 01:30:53;;;;;;;3.37;3.17;;;26.50;84.10;;;;;;4826870;29;20462;-62
2022/06/02 01:33:44;;;;;;;3.60;3.30;;;26.50;86.10;;;;;;4831144;29;20502;-62
2022/06/02 01:36:23;;;;;;;3.43;3.13;;;26.20;86.10;;;;;;4831154;29;20494;-62
2022/06/02 01:39:21;;;;;;;3.17;2.93;;;26.20;84.70;;;;;;4830612;29;20461;-62
2022/06/02 01:42:10;;;;;;;3.30;3.10;;;26.30;88.40;;;;;;4833948;29;20462;-62
2022/06/02 01:44:58;;;;;;;3.50;3.20;;;26.30;87.80;;;;;;4849446;29;20457;-62
2022/06/02 01:47:35;;;;;;;4.33;3.97;;;26.30;87.00;;;;;;4848752;29;20586;-62
2022/06/02 01:50:27;;;;;;;3.53;3.23;;;26.40;86.60;;;;;;4848907;29;20465;-62
2022/06/02 01:53:08;;;;;;;3.50;3.30;;;26.60;85.20;;;;;;4849080;29;20462;-62
2022/06/02 01:56:02;;;;;;;3.30;3.10;;;26.50;83.20;;;;;;4847920;29;20525;-62
2022/06/02 01:58:46;;;;;;;3.67;3.47;;;26.50;84.40;;;;;;4825738;29;20456;-62
2022/06/02 02:01:24;;;;;;;3.07;2.87;;;26.50;84.90;;;;;;4885058;29;21022;-62
2022/06/02 02:04:19;;;;;;;3.60;3.30;;;26.50;83.30;;;;;;4902389;29;20531;-62
2022/06/02 02:06:59;;;;;;;3.20;2.93;;;26.70;83.60;;;;;;4908026;29;20447;-62
2022/06/02 02:09:40;;;;;;;3.20;3.00;;;26.70;84.50;;;;;;4909899;29;20882;-63
2022/06/02 02:12:23;;;;;;;3.17;2.97;;;26.80;83.70;;;;;;4929089;29;20458;-61
2022/06/02 02:15:12;;;;;;;4.33;3.93;;;26.80;84.90;;;;;;4929267;29;20510;-61
2022/06/02 02:17:55;;;;;;;3.53;3.23;;;26.70;87.90;;;;;;4929715;29;20460;-61
2022/06/02 02:20:33;;;;;;;5.47;4.37;;;26.30;90.30;;;;;;4929208;29;20462;-61
2022/06/02 02:23:15;;;;;;;5.97;4.23;;;25.80;91.30;;;;;;4929602;29;20468;-61
2022/06/02 02:25:53;;;;;;;4.43;4.03;;;25.30;92.50;;;;;;4928398;29;20536;-61
2022/06/02 02:28:32;;;;;;;5.03;4.60;;;25.10;93.50;;;;;;4929303;29;20459;-62
2022/06/02 02:31:14;;;;;;;4.93;4.50;;;25.00;94.40;;;;;;4929430;29;20535;-61
2022/06/02 02:33:57;;;;;;;4.97;4.53;;;24.80;95.20;;;;;;4929405;29;20491;-61
2022/06/02 02:36:38;;;;;;;5.47;4.97;;;24.70;95.10;;;;;;4929470;29;20440;-61
2022/06/02 02:39:18;;;;;;;5.20;4.40;;;24.40;95.70;;;;;;4928186;29;20469;-61
2022/06/02 02:41:54;;;;;;;6.83;4.87;;;24.20;96.80;;;;;;4928951;29;20465;-61
2022/06/02 02:44:29;;;;;;;6.47;4.90;;;24.00;96.60;;;;;;4928743;29;20495;-61
2022/06/02 02:47:03;;;;;;;5.80;5.17;;;23.90;96.90;;;;;;4929108;29;20485;-61
2022/06/02 02:49:42;;;;;;;5.30;4.90;;;23.80;97.30;;;;;;4928356;29;20458;-61
2022/06/02 02:52:21;;;;;;;5.77;5.27;;;23.60;96.80;;;;;;4929129;29;20446;-62
2022/06/02 02:54:58;;;;;;;6.47;4.50;;;23.50;96.90;;;;;;4927675;29;20504;-61
2022/06/02 02:57:38;;;;;;;4.00;3.63;;;23.10;97.30;;;;;;4929149;29;20549;-61
2022/06/02 03:00:15;;;;;;;4.07;3.70;;;23.00;97.60;;;;;;4928241;29;20565;-61
2022/06/02 03:02:56;;;;;;;4.20;3.43;;;22.90;97.40;;;;;;4928924;29;20473;-61
2022/06/02 03:05:33;;;;;;;4.87;3.80;;;22.70;97.60;;;;;;4928480;29;20490;-61
2022/06/02 03:08:11;;;;;;;4.80;3.70;;;22.70;97.50;;;;;;4928622;29;20461;-61
2022/06/02 03:10:48;;;;;;;4.00;3.70;;;22.70;96.80;;;;;;4927768;29;20468;-61
2022/06/02 03:13:34;;;;;;;3.73;3.43;;;22.50;97.30;;;;;;4928392;29;20446;-61
2022/06/02 03:16:10;;;;;;;6.30;3.70;;;22.40;97.50;;;;;;4928608;29;20450;-60
2022/06/02 03:19:00;;;;;;;4.13;3.60;;;22.20;97.40;;;;;;4926856;29;20458;-62
2022/06/02 03:21:35;;;;;;;4.77;4.27;;;22.10;98.50;;;;;;4928416;29;21046;-60
2022/06/02 03:24:38;;;;;;;4.60;4.20;;;21.90;98.20;;;;;;4927299;29;20539;-61
2022/06/02 03:27:19;;;;;;;4.10;3.70;;;21.90;98.60;;;;;;4928343;29;20454;-60
2022/06/02 03:30:08;;;;;;;4.37;3.77;;;21.80;98.70;;;;;;4927751;29;20451;-60
2022/06/02 03:33:06;;;;;;;3.70;3.33;;;21.60;99.20;;;;;;4927486;29;20452;-60
2022/06/02 03:35:47;;;;;;;5.10;3.70;;;21.60;99.50;;;;;;4927010;29;20509;-60
2022/06/02 03:38:57;;;;;;;4.57;3.90;;;21.50;99.90;;;;;;4927786;29;20472;-60
2022/06/02 03:42:02;;;;;;;4.30;3.90;;;21.50;99.90;;;;;;4869070;29;20544;-63
2022/06/02 03:44:48;;;;;;;5.40;3.90;;;21.50;99.90;;;;;;4850462;29;20425;-61
2022/06/02 03:47:31;;;;;;;5.90;3.90;;;21.40;99.90;;;;;;4850590;29;20476;-61
2022/06/02 03:50:22;;;;;;;5.60;3.57;;;21.40;99.90;;;;;;4849995;29;20457;-61
2022/06/02 03:53:15;;;;;;;3.77;3.47;;;21.30;99.90;;;;;;4850516;29;20443;-62
2022/06/02 03:55:58;;;;;;;4.30;3.90;;;21.20;99.90;;;;;;4849788;29;20490;-61
2022/06/02 03:58:48;;;;;;;3.33;3.10;;;21.20;99.90;;;;;;4850655;29;20458;-61
2022/06/02 04:01:26;;;;;;;4.00;3.70;;;21.20;99.90;;;;;;4850239;29;20458;-60
2022/06/02 04:04:11;;;;;;;5.03;3.80;;;21.20;99.90;;;;;;4849945;29;20458;-61
2022/06/02 04:06:57;;;;;;;3.63;3.33;;;21.20;99.90;;;;;;4850329;29;20433;-61
2022/06/02 04:09:41;;;;;;;3.67;3.37;;;21.20;99.90;;;;;;4849060;29;20436;-60
2022/06/02 04:16:09;;;;;;;3.30;3.10;;;21.00;99.90;;;;;;4813524;29;21012;-60
2022/06/02 04:18:53;;;;;;;3.77;3.47;;;20.90;99.90;;;;;;4849991;29;20502;-60
2022/06/02 04:21:37;;;;;;;4.60;3.80;;;20.90;99.90;;;;;;4868125;29;20461;-60
2022/06/02 04:24:22;;;;;;;3.93;3.60;;;20.80;99.90;;;;;;4866948;29;20913;-60
2022/06/02 04:27:04;;;;;;;3.67;3.37;;;20.80;99.90;;;;;;4868362;29;20436;-60
2022/06/02 04:30:03;;;;;;;3.90;3.60;;;20.80;99.90;;;;;;4867636;29;20424;-60
2022/06/02 04:32:42;;;;;;;4.03;3.33;;;20.70;99.90;;;;;;4868359;29;20492;-61
2022/06/02 04:35:27;;;;;;;4.03;3.50;;;20.70;99.90;;;;;;4867916;29;20515;-60
2022/06/02 04:38:05;;;;;;;3.97;3.67;;;20.60;99.90;;;;;;4868583;29;20456;-60
2022/06/02 04:40:44;;;;;;;3.33;3.10;;;20.50;99.90;;;;;;4866727;29;20967;-60
2022/06/02 04:43:24;;;;;;;4.17;3.80;;;20.40;99.90;;;;;;4868056;29;20472;-60
2022/06/02 04:46:03;;;;;;;4.13;3.73;;;20.40;99.90;;;;;;4871173;29;20499;-61
2022/06/02 04:48:41;;;;;;;4.20;3.83;;;20.30;99.90;;;;;;4907605;29;20451;-60
2022/06/02 04:51:22;;;;;;;3.70;3.40;;;20.30;99.90;;;;;;4907502;29;20466;-60
2022/06/02 04:54:01;;;;;;;3.70;3.40;;;20.20;99.90;;;;;;4919933;29;20417;-60
2022/06/02 04:56:38;;;;;;;4.90;3.80;;;20.20;99.90;;;;;;4926777;29;20482;-60
2022/06/02 04:59:16;;;;;;;3.80;3.43;;;20.10;99.90;;;;;;4926339;29;20429;-60
2022/06/02 05:01:59;;;;;;;4.07;3.70;;;20.00;99.90;;;;;;4926369;29;20435;-60
2022/06/02 05:04:40;;;;;;;4.60;4.30;;;19.90;99.90;;;;;;4926059;29;20429;-61
2022/06/02 05:07:20;;;;;;;4.07;3.77;;;19.80;99.90;;;;;;4926363;29;20458;-61
2022/06/02 05:10:04;;;;;;;5.10;3.97;;;19.80;99.90;;;;;;4925053;29;20529;-61
2022/06/02 05:12:47;;;;;;;3.63;3.43;;;19.80;99.90;;;;;;4907275;29;20508;-61
2022/06/02 05:15:36;;;;;;;4.13;3.30;;;19.80;99.90;;;;;;4906840;29;20462;-61
2022/06/02 05:18:37;;;;;;;3.83;3.53;;;19.60;99.90;;;;;;4907004;29;20429;-61
2022/06/02 05:21:36;;;;;;;6.40;3.60;;;19.50;99.90;;;;;;4906798;29;20462;-61
2022/06/02 05:24:34;;;;;;;3.97;3.60;;;19.40;99.90;;;;;;4905768;29;21248;-63
2022/06/02 05:27:34;;;;;;;5.33;3.97;;;19.40;99.90;;;;;;4907276;29;20775;-61
2022/06/02 05:30:33;;;;;;;4.03;3.73;;;19.30;99.90;;;;;;4907117;29;20422;-61
2022/06/02 05:33:39;;;;;;;3.97;3.67;;;19.30;99.90;;;;;;4907366;29;20940;-61
2022/06/02 05:36:35;;;;;;;3.90;3.60;;;19.20;99.90;;;;;;4907265;29;21022;-61
2022/06/02 05:39:25;;;;;;;3.73;3.47;;;19.20;99.90;;;;;;4901927;29;20434;-61
2022/06/02 05:42:16;;;;;;;4.30;4.00;;;19.00;99.90;;;;;;4911273;29;20450;-61
2022/06/02 05:45:05;;;;;;;4.70;4.23;;;18.90;99.90;;;;;;4929877;29;20457;-61
2022/06/02 05:47:47;;;;;;;3.93;3.63;;;18.90;99.90;;;;;;4928391;29;20487;-61
2022/06/02 05:50:34;;;;;;;4.67;4.13;;;18.80;99.90;;;;;;4929387;29;20494;-61
2022/06/02 05:53:17;;;;;;;4.50;4.20;;;18.70;99.90;;;;;;4929427;29;20460;-62
2022/06/02 05:56:03;;;;;;;5.10;4.47;;;18.60;99.90;;;;;;4928683;29;20493;-62
2022/06/02 05:58:59;;;;;;;4.80;4.40;;;18.60;99.90;;;;;;4929679;29;20454;-61
2022/06/02 06:01:47;;;;;;;4.50;3.57;;;18.60;99.90;;;;;;4924297;29;20458;-61
2022/06/02 06:04:53;;;;;;;3.97;3.67;;;18.50;99.90;;;;;;4929236;29;20450;-61
2022/06/02 06:07:48;;;;;;;4.80;4.30;;;18.50;99.90;;;;;;4929469;29;20469;-61
2022/06/02 06:10:24;;;;;;;4.70;4.30;;;18.40;99.90;;;;;;4928122;29;20963;-61
2022/06/02 06:13:20;;;;;;;4.63;4.20;;;18.40;99.90;;;;;;4929207;29;20420;-61
2022/06/02 06:16:00;;;;;;;4.53;4.13;;;18.40;99.90;;;;;;4929095;29;20484;-61
2022/06/02 06:18:43;;;;;;;4.30;3.90;;;18.30;99.90;;;;;;4929295;29;20894;-61
2022/06/02 06:21:27;;;;;;;4.87;4.40;;;18.20;99.90;;;;;;4929326;29;20443;-61
2022/06/02 06:24:30;;;;;;;4.63;4.27;;;18.20;99.90;;;;;;4928163;29;20523;-61
2022/06/02 06:27:08;;;;;;;5.40;4.57;;;18.10;99.90;;;;;;4929152;29;20541;-61
2022/06/02 06:30:00;;;;;;;5.97;4.77;;;18.10;99.90;;;;;;4928818;29;20450;-61
2022/06/02 06:32:39;;;;;;;5.00;4.60;;;18.00;99.90;;;;;;4928479;29;20513;-61
2022/06/02 06:35:30;;;;;;;5.97;5.47;;;17.90;99.90;;;;;;4928578;29;20458;-61
2022/06/02 06:38:36;;;;;;;5.57;5.03;;;17.90;99.90;;;;;;4929170;29;20547;-61
2022/06/02 06:41:19;;;;;;;5.63;4.87;;;17.80;99.90;;;;;;4927977;29;20454;-59
2022/06/02 06:44:18;;;;;;;5.40;4.90;;;17.80;99.90;;;;;;4928384;29;20454;-60
2022/06/02 06:47:03;;;;;;;5.43;4.93;;;17.70;99.90;;;;;;4927170;29;20463;-60
2022/06/02 06:49:52;;;;;;;5.33;4.90;;;17.60;99.90;;;;;;4928359;29;20447;-60
2022/06/02 06:52:47;;;;;;;6.00;5.47;;;17.50;99.90;;;;;;4928263;29;20504;-61
2022/06/02 06:55:32;;;;;;;7.43;6.50;;;17.50;99.90;;;;;;4927576;29;20454;-60
2022/06/02 06:58:13;;;;;;;6.97;6.20;;;17.40;99.90;;;;;;4928882;29;20449;-60
2022/06/02 07:00:51;;;;;;;6.30;5.67;;;17.40;99.90;;;;;;4928367;29;20458;-61
2022/06/02 07:03:32;;;;;;;6.40;5.80;;;17.40;99.90;;;;;;4928109;29;20484;-61
2022/06/02 07:06:11;;;;;;;6.67;5.80;;;17.40;99.90;;;;;;4928446;29;20429;-61
2022/06/02 07:08:49;;;;;;;6.03;5.50;;;17.30;99.90;;;;;;4928251;29;20425;-60
2022/06/02 07:14:18;;;;;;;5.97;5.37;;;17.20;99.90;;;;;;4927680;29;20458;-60
2022/06/02 07:16:55;;;;;;;5.93;5.43;;;17.10;99.90;;;;;;4928040;29;20494;-60
2022/06/02 07:19:33;;;;;;;6.37;5.03;;;17.00;99.90;;;;;;4927954;29;20420;-61
2022/06/02 07:22:12;;;;;;;6.47;5.90;;;17.00;99.90;;;;;;4912807;29;20517;-61
2022/06/02 07:24:54;;;;;;;5.50;5.00;;;17.00;99.90;;;;;;4907947;29;20426;-61
2022/06/02 07:27:35;;;;;;;6.27;5.50;;;16.90;99.90;;;;;;4909058;29;20490;-61
2022/06/02 07:30:25;;;;;;;6.30;5.70;;;16.90;99.90;;;;;;4908771;29;20451;-61
2022/06/02 07:33:24;;;;;;;5.97;5.47;;;16.70;99.90;;;;;;4925170;29;20459;-61
2022/06/02 07:36:54;;;;;;;6.30;5.13;;;16.70;99.90;;;;;;4927703;29;20486;-61
2022/06/02 07:40:03;;;;;;;5.90;5.40;;;16.70;99.90;;;;;;4926711;29;20505;-60
2022/06/02 07:43:26;;;;;;;7.33;6.00;;;16.70;99.90;;;;;;4928000;29;20454;-60
2022/06/02 07:46:14;;;;;;;6.10;5.60;;;16.50;99.90;;;;;;4868839;29;20484;-60
2022/06/02 07:49:05;;;;;;;5.73;5.27;;;16.40;99.90;;;;;;4868901;29;20841;-60
2022/06/02 07:51:47;;;;;;;7.17;5.67;;;16.40;99.90;;;;;;4868905;29;20458;-60
2022/06/02 07:54:28;;;;;;;6.77;6.17;;;16.40;99.90;;;;;;4867654;29;20461;-60
2022/06/02 07:57:14;;;;;;;6.97;6.27;;;16.30;99.90;;;;;;4869021;29;20900;-61
2022/06/02 08:00:09;;;;;;;6.40;5.80;;;16.40;99.90;;;;;;4868302;29;20507;-60
2022/06/02 08:03:06;;;;;;;7.13;6.43;;;16.30;99.90;;;;;;4868790;29;20566;-60
2022/06/02 08:05:44;;;;;;;7.03;6.33;;;16.30;99.90;;;;;;4865195;29;20497;-61
2022/06/02 08:08:29;;;;;;;7.13;6.43;;;16.30;99.90;;;;;;4869027;29;20822;-60
2022/06/02 08:11:21;;;;;;;6.80;6.30;;;16.20;99.90;;;;;;4855341;29;20450;-60
2022/06/02 08:14:07;;;;;;;8.37;7.50;;;16.10;99.90;;;;;;4849776;29;20466;-60
2022/06/02 08:16:50;;;;;;;7.53;6.73;;;16.10;99.90;;;;;;4850012;29;20517;-60
2022/06/02 08:19:31;;;;;;;6.40;5.80;;;16.00;99.90;;;;;;4859671;29;20467;-60
2022/06/02 08:22:05;;;;;;;7.10;6.40;;;16.00;99.90;;;;;;4907984;29;20542;-60
2022/06/02 08:25:01;;;;;;;6.90;6.30;;;15.90;99.90;;;;;;4906749;29;20477;-61
2022/06/02 08:28:00;;;;;;;8.20;6.30;;;16.00;99.90;;;;;;4908149;29;20463;-60
2022/06/02 08:30:46;;;;;;;6.13;5.63;;;15.90;99.90;;;;;;4904988;29;20475;-61
2022/06/02 08:33:44;;;;;;;6.80;6.10;;;15.80;99.90;;;;;;4907640;29;20492;-61
2022/06/02 08:36:17;;;;;;;7.00;6.30;;;15.80;99.90;;;;;;4907919;29;20950;-61
2022/06/02 08:39:29;;;;;;;7.70;6.90;;;15.80;99.90;;;;;;4907376;29;20462;-61
2022/06/02 08:42:33;;;;;;;11.53;6.77;;;15.80;99.90;;;;;;4907769;29;21316;-61
2022/06/02 08:45:36;;;;;;;7.93;6.70;;;15.70;99.90;;;;;;4900490;29;20455;-61
2022/06/02 08:48:55;;;;;;;7.20;6.50;;;15.70;99.90;;;;;;4907189;29;20458;-61
2022/06/02 08:51:58;;;;;;;8.00;7.20;;;15.60;99.90;;;;;;4897842;29;20476;-61
2022/06/02 08:55:06;;;;;;;7.13;6.37;;;15.60;99.90;;;;;;4906168;29;20460;-61
2022/06/02 08:58:29;;;;;;;6.60;5.90;;;15.60;99.90;;;;;;4900251;29;20494;-61
2022/06/02 09:01:12;;;;;;;8.07;7.30;;;15.50;99.90;;;;;;4907223;29;20465;-61
2022/06/02 09:04:21;;;;;;;6.53;5.93;;;15.40;99.90;;;;;;4906896;29;20448;-61
2022/06/02 09:07:33;;;;;;;7.60;6.67;;;15.40;99.90;;;;;;4907276;29;20462;-61
2022/06/02 09:10:40;;;;;;;7.90;6.37;;;15.40;99.90;;;;;;4906202;29;20466;-60
2022/06/02 09:13:49;;;;;;;7.47;6.57;;;15.40;99.90;;;;;;4899415;29;20460;-60
2022/06/02 09:16:29;;;;;;;7.67;6.13;;;15.30;99.90;;;;;;4891488;29;20475;-61
2022/06/02 09:19:36;;;;;;;8.30;6.43;;;15.20;99.90;;;;;;4906792;29;20528;-59
2022/06/02 09:22:33;;;;;;;9.20;7.07;;;15.10;99.90;;;;;;4907326;29;20448;-60
2022/06/02 09:25:32;;;;;;;7.63;6.97;;;15.10;99.90;;;;;;4905763;29;20482;-60
2022/06/02 09:28:38;;;;;;;7.10;6.23;;;15.20;99.90;;;;;;4907013;29;20637;-61
2022/06/02 09:31:26;;;;;;;8.80;7.90;;;15.10;99.90;;;;;;4908455;29;20467;-60
2022/06/02 09:34:46;;;;;;;7.87;7.07;;;15.20;99.90;;;;;;4925401;29;20450;-60
2022/06/02 09:37:34;;;;;;;8.07;7.17;;;15.10;99.90;;;;;;4914406;29;20987;-60
2022/06/02 09:40:34;;;;;;;9.67;7.37;;;15.10;99.90;;;;;;4924855;29;20485;-60
2022/06/02 09:43:36;;;;;;;7.63;6.93;;;15.00;99.90;;;;;;4925914;29;20939;-60
2022/06/02 09:46:36;;;;;;;7.53;6.73;;;15.00;99.90;;;;;;4925536;29;20894;-60
2022/06/02 09:50:03;;;;;;;8.10;7.30;;;14.90;99.90;;;;;;4925295;29;20454;-61
2022/06/02 09:52:55;;;;;;;7.83;7.13;;;14.90;99.90;;;;;;4913715;29;20463;-62
2022/06/02 09:55:41;;;;;;;7.20;6.47;;;14.90;99.90;;;;;;4913330;29;20577;-61
2022/06/02 09:58:35;;;;;;;7.77;7.10;;;14.80;99.90;;;;;;4925701;29;20501;-61
2022/06/02 10:01:22;;;;;;;8.03;7.20;;;14.80;99.90;;;;;;4919497;29;20451;-61
2022/06/02 10:04:41;;;;;;;9.13;7.40;;;14.80;99.90;;;;;;4925528;29;20443;-62
2022/06/02 10:07:44;;;;;;;8.10;7.00;;;14.80;99.90;;;;;;4925647;29;20786;-61
2022/06/02 10:10:30;;;;;;;7.20;6.47;;;14.70;99.90;;;;;;4924419;29;20438;-60
2022/06/02 10:13:28;;;;;;;8.47;6.80;;;14.70;99.90;;;;;;4925751;29;20761;-61
2022/06/02 10:16:26;;;;;;;7.33;6.60;;;14.70;99.90;;;;;;4901622;29;20459;-60
2022/06/02 10:19:32;;;;;;;7.37;6.63;;;14.60;99.90;;;;;;4925335;29;20860;-61
2022/06/02 10:22:10;;;;;;;7.87;7.17;;;14.60;99.90;;;;;;4925841;29;20439;-61
2022/06/02 10:25:07;;;;;;;8.37;7.57;;;14.50;99.90;;;;;;4924901;29;20928;-60
2022/06/02 10:28:20;;;;;;;6.93;6.33;;;14.40;99.90;;;;;;4901351;29;20518;-61
2022/06/02 10:31:22;;;;;;;7.97;7.33;;;14.40;99.90;;;;;;4929152;29;20477;-60
2022/06/02 10:34:33;;;;;;;7.57;6.50;;;14.40;99.90;;;;;;4929072;29;20431;-60
2022/06/02 10:37:40;;;;;;;8.00;7.30;;;14.40;99.90;;;;;;4913036;29;20465;-60
2022/06/02 10:40:37;;;;;;;8.73;7.70;;;14.40;99.90;;;;;;4928161;29;20435;-60
2022/06/02 10:43:48;;;;;;;8.37;7.57;;;14.40;99.90;;;;;;4928931;29;20449;-60
2022/06/02 10:46:54;;;;;;;8.97;6.90;;;14.30;99.90;;;;;;4928633;29;20490;-60
2022/06/02 10:49:30;;;;;;;7.40;6.70;;;14.30;99.90;;;;;;4897917;29;20455;-61
2022/06/02 10:53:03;;;;;;;8.73;7.20;;;14.30;99.90;;;;;;4929190;29;20458;-61
2022/06/02 10:56:03;;;;;;;13.53;8.43;;;14.20;99.90;;;;;;4927645;29;20450;-62
2022/06/02 10:59:04;;;;;;;8.67;7.70;;;14.20;99.90;;;;;;4928564;29;20542;-61
2022/06/02 11:02:28;;;;;;;8.70;7.80;;;14.20;99.90;;;;;;4909868;29;20451;-61
2022/06/02 11:05:41;;;;;;;8.47;7.67;;;14.10;99.90;;;;;;4851057;29;20543;-61
2022/06/02 11:09:08;;;;;;;10.23;6.77;;;14.10;99.90;;;;;;4796742;30;20475;-61
2022/06/02 11:12:19;;;;;;;10.00;7.60;;;14.10;99.90;;;;;;4796754;30;20969;-61
2022/06/02 11:15:31;;;;;;;7.80;7.00;;;14.10;99.90;;;;;;4796331;30;20475;-61
2022/06/02 11:18:31;;;;;;;8.67;7.77;;;14.00;99.90;;;;;;4796599;30;20657;-61
2022/06/02 11:21:31;;;;;;;8.50;7.60;;;14.00;99.90;;;;;;4801737;29;20452;-61
2022/06/02 11:24:16;;;;;;;10.40;7.50;;;14.00;99.90;;;;;;4801000;29;20975;-61
2022/06/02 11:27:30;;;;;;;8.27;7.43;;;14.00;99.90;;;;;;4814565;29;20605;-61
2022/06/02 11:30:39;;;;;;;9.70;7.87;;;14.00;99.90;;;;;;4808211;29;20532;-60
2022/06/02 11:33:36;;;;;;;8.17;7.37;;;13.90;99.90;;;;;;4814469;29;20464;-61
2022/06/02 11:36:50;;;;;;;8.40;7.60;;;13.80;99.90;;;;;;4814084;29;20470;-61
2022/06/02 11:39:55;;;;;;;9.40;8.50;;;13.70;99.90;;;;;;4740854;30;20511;-60
2022/06/02 11:42:57;;;;;;;9.73;8.20;;;13.80;99.90;;;;;;4814316;29;20460;-60
2022/06/02 11:45:51;;;;;;;9.43;8.03;;;13.80;99.90;;;;;;4846232;29;20507;-60
2022/06/02 11:48:50;;;;;;;10.53;8.03;;;13.70;99.90;;;;;;4854207;29;20502;-60
2022/06/02 11:51:50;;;;;;;8.90;8.03;;;13.70;99.90;;;;;;4864680;29;20467;-60
2022/06/02 11:54:56;;;;;;;8.87;8.07;;;13.70;99.90;;;;;;4867693;29;20458;-60
2022/06/02 11:57:46;;;;;;;8.50;7.80;;;13.70;99.90;;;;;;4867336;29;20974;-59
2022/06/02 12:00:35;;;;;;;9.20;8.20;;;13.60;99.90;;;;;;4868829;29;20465;-60
2022/06/02 12:03:20;;;;;;;11.00;8.80;;;13.60;99.90;;;;;;4868874;29;20462;-60
2022/06/02 12:06:24;;;;;;;9.67;8.67;;;13.60;99.90;;;;;;4868824;29;20457;-60
2022/06/02 12:09:15;;;;;;;9.90;9.00;;;13.60;99.90;;;;;;4868061;29;20544;-60
2022/06/02 12:12:09;;;;;;;10.70;9.00;;;13.60;99.90;;;;;;4868825;29;20441;-61
2022/06/02 12:15:18;;;;;;;11.67;10.47;;;13.60;99.90;;;;;;4880098;29;20459;-61
2022/06/02 12:18:11;;;;;;;10.93;9.03;;;13.60;99.90;;;;;;4899531;29;20921;-60
2022/06/02 12:21:27;;;;;;;16.20;10.23;;;13.60;99.90;;;;;;4912696;29;20451;-60
2022/06/02 12:24:31;;;;;;;15.33;9.03;;;13.60;99.90;;;;;;4926141;29;20454;-60
2022/06/02 12:27:23;;;;;;;9.70;6.60;;;13.60;99.90;;;;;;4926802;29;20450;-60
2022/06/02 12:30:07;;;;;;;7.77;5.83;;;13.50;99.90;;;;;;4926837;29;20443;-61
2022/06/02 12:33:13;;;;;;;5.53;5.00;;;13.50;99.90;;;;;;4927619;29;20435;-60
2022/06/02 12:36:08;;;;;;;6.27;4.57;;;13.60;99.90;;;;;;4927110;29;20446;-61
2022/06/02 12:38:59;;;;;;;6.20;4.90;;;13.50;99.90;;;;;;4926794;29;20494;-61
2022/06/02 12:41:46;;;;;;;6.60;4.10;;;13.50;99.90;;;;;;4927335;29;20450;-61
2022/06/02 12:45:02;;;;;;;5.23;4.00;;;13.60;99.90;;;;;;4926436;29;20463;-62
2022/06/02 12:48:18;;;;;;;2.80;2.60;;;13.60;99.90;;;;;;4922490;29;20498;-60
2022/06/02 12:51:03;;;;;;;2.23;2.03;;;13.70;99.90;;;;;;4908770;29;20447;-60
2022/06/02 12:54:00;;;;;;;2.70;2.23;;;13.80;99.90;;;;;;4926627;29;20441;-61
2022/06/02 12:57:11;;;;;;;1.97;1.77;;;13.80;99.90;;;;;;4926835;29;20465;-61
2022/06/02 13:00:13;;;;;;;3.13;2.83;;;13.90;99.90;;;;;;4914172;29;20571;-61
2022/06/02 13:03:16;;;;;;;3.20;2.63;;;13.90;99.90;;;;;;4908110;29;20446;-61
2022/06/02 13:06:27;;;;;;;3.70;2.80;;;14.00;99.90;;;;;;4888607;29;20543;-61
2022/06/02 13:09:30;;;;;;;3.43;2.80;;;14.00;99.90;;;;;;4906905;29;20455;-59
2022/06/02 13:12:24;;;;;;;3.53;3.00;;;14.10;99.90;;;;;;4905130;29;20459;-61
2022/06/02 13:15:29;;;;;;;5.40;3.70;;;14.10;99.90;;;;;;4907448;29;20473;-61
2022/06/02 13:18:39;;;;;;;4.93;3.90;;;14.10;99.90;;;;;;4907604;29;20475;-61
2022/06/02 13:22:05;;;;;;;3.53;2.40;;;14.20;99.90;;;;;;4915758;29;20450;-61
2022/06/02 13:25:04;;;;;;;3.80;3.27;;;14.20;99.90;;;;;;4925146;29;20431;-61
2022/06/02 13:28:31;;;;;;;5.30;3.57;;;14.30;99.90;;;;;;4926531;29;20454;-61
2022/06/02 13:31:41;;;;;;;5.63;3.90;;;14.40;99.90;;;;;;4866399;29;20501;-61
2022/06/02 13:34:49;;;;;;;5.80;3.53;;;14.60;99.90;;;;;;4849067;29;20526;-61
2022/06/02 13:37:41;;;;;;;5.00;3.50;;;14.50;99.90;;;;;;4849477;29;20853;-61
2022/06/02 13:40:29;;;;;;;3.73;3.37;;;14.60;99.90;;;;;;4848236;29;20493;-61
2022/06/02 13:43:31;;;;;;;4.13;3.03;;;14.70;99.90;;;;;;4849525;29;20469;-61
2022/06/02 13:46:39;;;;;;;5.00;4.00;;;14.70;99.90;;;;;;4849139;29;20499;-61
2022/06/02 13:49:48;;;;;;;4.30;3.90;;;14.80;99.90;;;;;;4858632;29;20496;-61
2022/06/02 13:52:49;;;;;;;5.90;4.50;;;14.80;99.90;;;;;;4849159;29;20458;-61
2022/06/02 13:59:17;;;;;;;5.63;3.90;;;15.00;99.90;;;;;;4831233;29;20557;-61
2022/06/02 14:02:08;;;;;;;4.00;3.60;;;15.00;99.90;;;;;;4849367;29;20458;-60
2022/06/02 14:04:54;;;;;;;5.90;4.27;;;15.10;99.90;;;;;;4852000;29;20628;-61
2022/06/02 14:07:46;;;;;;;4.57;3.70;;;15.20;99.90;;;;;;4922803;29;20440;-61
2022/06/02 14:10:47;;;;;;;4.60;4.00;;;15.20;99.90;;;;;;4926340;29;20457;-61
2022/06/02 14:13:39;;;;;;;4.60;3.23;;;15.30;99.90;;;;;;4927429;29;20777;-60
2022/06/02 14:16:17;;;;;;;5.00;3.70;;;15.60;99.90;;;;;;4927535;29;20447;-61
2022/06/02 14:19:08;;;;;;;4.00;3.37;;;15.60;99.90;;;;;;4926949;29;20537;-61
2022/06/02 14:21:49;;;;;;;5.30;4.10;;;15.60;99.90;;;;;;4927087;29;20451;-60
2022/06/02 14:24:35;;;;;;;3.67;3.00;;;15.70;99.90;;;;;;4926074;29;20470;-60
2022/06/02 14:27:19;;;;;;;5.43;4.53;;;15.80;99.90;;;;;;4927185;29;20450;-60
2022/06/02 14:30:01;;;;;;;5.13;3.93;;;15.80;99.90;;;;;;4928506;29;20786;-60
2022/06/02 14:32:42;;;;;;;4.73;3.77;;;15.90;99.90;;;;;;4929430;29;20459;-60
2022/06/02 14:35:42;;;;;;;5.90;4.03;;;15.90;99.90;;;;;;4929290;29;20450;-61
2022/06/02 14:38:27;;;;;;;4.50;3.80;;;16.00;99.90;;;;;;4929231;29;20465;-60
2022/06/02 14:41:03;;;;;;;4.00;3.40;;;16.10;99.90;;;;;;4928223;29;20494;-60
2022/06/02 14:43:59;;;;;;;5.33;3.50;;;16.20;99.90;;;;;;4929434;29;20486;-60
2022/06/02 14:46:54;;;;;;;4.93;4.43;;;16.50;99.90;;;;;;4928547;29;20492;-60
2022/06/02 14:50:04;;;;;;;4.50;3.60;;;16.40;99.90;;;;;;4927397;29;20470;-60
2022/06/02 14:53:05;;;;;;;6.40;4.60;;;16.50;99.90;;;;;;4869260;29;20457;-60
2022/06/02 14:55:43;;;;;;;5.50;4.00;;;16.60;99.90;;;;;;4868226;29;20460;-60
2022/06/02 14:58:25;;;;;;;3.90;3.47;;;16.80;99.90;;;;;;4869379;29;20449;-61
2022/06/02 15:01:20;;;;;;;5.30;4.77;;;17.10;99.90;;;;;;4851265;29;20498;-60
2022/06/02 15:04:24;;;;;;;6.70;4.57;;;17.30;99.90;;;;;;4850323;29;20433;-60
2022/06/02 15:07:34;;;;;;;7.57;5.97;;;17.50;99.90;;;;;;4841618;29;20466;-60